createdAt,value
2018-12-31T00:03:57.547Z,87.20
2018-12-31T00:09:08.999Z,87.20
2018-12-31T00:14:20.888Z,87.20
2018-12-31T00:19:32.865Z,87.20
2018-12-31T00:24:44.115Z,87.00
2018-12-31T00:29:55.612Z,86.90
2018-12-31T00:35:07.196Z,87.00
2018-12-31T00:40:19.191Z,87.10
2018-12-31T00:45:30.741Z,87.00
2018-12-31T00:50:42.728Z,86.90
2018-12-31T00:55:54.503Z,86.90
2018-12-31T01:01:06.112Z,87.00
2018-12-31T01:06:18.092Z,86.90
2018-12-31T01:11:30.311Z,86.80
2018-12-31T01:16:42.500Z,86.90
2018-12-31T01:21:53.816Z,86.80
2018-12-31T01:27:05.980Z,86.60
2018-12-31T01:32:17.259Z,86.70
2018-12-31T01:37:29.668Z,86.60
2018-12-31T01:42:41.827Z,86.60
2018-12-31T01:47:53.175Z,86.60
2018-12-31T01:53:04.504Z,86.60
2018-12-31T01:58:16.464Z,86.50
2018-12-31T02:03:27.758Z,86.60
2018-12-31T02:08:39.816Z,86.60
2018-12-31T02:13:56.903Z,86.60
2018-12-31T02:19:15.438Z,86.70
2018-12-31T02:24:26.809Z,86.80
2018-12-31T02:29:38.080Z,86.70
2018-12-31T02:34:49.411Z,86.70
2018-12-31T02:40:01.408Z,86.70
2018-12-31T02:45:13.188Z,86.60
2018-12-31T02:50:25.175Z,86.60
2018-12-31T02:55:35.411Z,86.70
2018-12-31T03:00:46.723Z,86.60
2018-12-31T03:05:58.667Z,86.50
2018-12-31T03:11:10.333Z,86.40
2018-12-31T03:16:21.795Z,86.50
2018-12-31T03:21:33.813Z,86.40
2018-12-31T03:26:45.872Z,86.60
2018-12-31T03:31:57.169Z,86.40
2018-12-31T03:37:09.557Z,86.30
2018-12-31T03:42:21.208Z,86.30
2018-12-31T03:47:20.924Z,86.60
2018-12-31T03:52:20.828Z,86.40
2018-12-31T03:57:20.726Z,86.30
2018-12-31T04:02:20.374Z,86.10
2018-12-31T04:07:20.044Z,86.10
2018-12-31T04:12:19.696Z,86.00
2018-12-31T04:17:31.751Z,86.20
2018-12-31T04:22:31.418Z,86.20
2018-12-31T04:27:50.340Z,86.40
2018-12-31T04:33:02.428Z,86.40
2018-12-31T04:38:14.509Z,86.40
2018-12-31T04:43:26.222Z,86.40
2018-12-31T04:48:37.600Z,86.30
2018-12-31T04:53:49.756Z,86.10
2018-12-31T04:59:01.120Z,86.00
2018-12-31T05:04:13.138Z,86.20
2018-12-31T05:09:25.504Z,86.20
2018-12-31T05:14:37.000Z,86.30
2018-12-31T05:19:49.041Z,86.30
2018-12-31T05:25:01.433Z,86.20
2018-12-31T05:30:13.180Z,86.20
2018-12-31T05:35:24.958Z,86.00
2018-12-31T05:40:37.011Z,86.00
2018-12-31T05:45:48.276Z,86.10
2018-12-31T05:51:00.216Z,86.10
2018-12-31T05:56:11.991Z,87.10
2018-12-31T06:01:23.812Z,86.20
2018-12-31T06:06:35.071Z,86.10
2018-12-31T06:11:47.131Z,86.00
2018-12-31T06:16:58.740Z,86.00
2018-12-31T06:22:10.895Z,86.90
2018-12-31T06:27:22.306Z,85.90
2018-12-31T06:32:32.313Z,85.90
2018-12-31T06:37:51.223Z,85.90
2018-12-31T06:43:03.295Z,85.80
2018-12-31T06:48:15.695Z,86.00
2018-12-31T06:53:27.603Z,86.20
2018-12-31T06:58:39.391Z,86.40
2018-12-31T07:03:51.497Z,86.40
2018-12-31T07:09:04.023Z,86.30
2018-12-31T07:14:16.016Z,86.30
2018-12-31T07:19:27.776Z,86.20
2018-12-31T07:24:39.844Z,86.10
2018-12-31T07:29:51.168Z,86.20
2018-12-31T07:35:03.212Z,86.30
2018-12-31T07:40:14.991Z,86.40
2018-12-31T07:45:27.180Z,86.50
2018-12-31T07:50:38.570Z,86.40
2018-12-31T07:55:50.929Z,86.40
2018-12-31T08:01:02.663Z,86.50
2018-12-31T08:06:14.418Z,86.60
2018-12-31T08:11:26.176Z,86.50
2018-12-31T08:16:38.306Z,86.50
2018-12-31T08:21:50.300Z,86.60
2018-12-31T08:27:01.764Z,86.50
2018-12-31T08:59:40.195Z,86.60
2018-12-31T09:04:52.200Z,86.60
2018-12-31T09:10:04.333Z,86.70
2018-12-31T09:15:15.607Z,86.70
2018-12-31T09:20:28.513Z,86.80
2018-12-31T12:01:37.643Z,88.50
2018-12-31T13:13:14.079Z,88.40
2018-12-31T13:18:25.971Z,88.50
2018-12-31T13:23:37.784Z,88.60
2018-12-31T13:28:49.439Z,88.80
2018-12-31T13:34:01.972Z,88.90
2018-12-31T13:39:14.126Z,89.00
2018-12-31T13:44:25.672Z,88.90
2018-12-31T13:49:37.808Z,88.90
2018-12-31T13:54:49.788Z,88.90
2018-12-31T14:00:01.982Z,88.80
2018-12-31T14:05:14.147Z,88.80
2018-12-31T14:10:25.910Z,88.70
2018-12-31T14:15:37.785Z,88.60
2018-12-31T14:20:49.328Z,88.40
2018-12-31T14:26:01.080Z,88.30
2018-12-31T14:31:13.322Z,88.30
2018-12-31T14:36:25.211Z,88.40
2018-12-31T14:41:24.918Z,88.20
2018-12-31T14:46:37.118Z,88.20
2018-12-31T14:51:49.463Z,88.20
2018-12-31T14:56:59.679Z,88.30
2018-12-31T15:02:18.587Z,88.20
2018-12-31T15:07:30.871Z,88.20
2018-12-31T15:12:42.635Z,88.40
2018-12-31T15:17:54.483Z,88.50
2018-12-31T15:23:06.195Z,88.40
2018-12-31T15:28:18.508Z,88.50
2018-12-31T15:33:30.344Z,88.50
2018-12-31T15:38:41.992Z,88.50
2018-12-31T15:43:53.981Z,88.60
2018-12-31T15:49:06.467Z,88.70
2018-12-31T15:54:18.602Z,88.80
2018-12-31T15:59:29.853Z,88.50
2018-12-31T16:04:41.689Z,88.60
2018-12-31T16:09:54.638Z,88.40
2018-12-31T16:15:05.909Z,88.30
2018-12-31T16:20:17.428Z,88.50
2018-12-31T16:25:30.479Z,88.30
2018-12-31T16:30:42.680Z,88.20
2018-12-31T16:35:53.862Z,88.30
2018-12-31T16:41:06.035Z,88.30
2018-12-31T17:52:55.911Z,88.50
2018-12-31T17:58:07.621Z,88.60
2018-12-31T18:03:18.915Z,88.60
2018-12-31T18:08:30.997Z,88.50
2018-12-31T18:13:43.112Z,88.60
2018-12-31T18:18:54.923Z,88.70
2018-12-31T18:24:06.755Z,88.80
2018-12-31T18:29:18.886Z,88.90
2018-12-31T18:34:31.439Z,88.90
2018-12-31T18:39:49.412Z,88.80
2018-12-31T18:44:57.047Z,88.80
2018-12-31T18:50:09.115Z,88.60
2018-12-31T18:55:20.407Z,88.60
2018-12-31T19:00:32.836Z,88.80
2018-12-31T19:05:44.120Z,88.70
2018-12-31T19:10:56.195Z,88.60
2018-12-31T19:16:08.111Z,88.70
2018-12-31T19:21:19.811Z,88.70
2018-12-31T19:26:31.876Z,88.60
2018-12-31T19:31:44.327Z,88.90
2018-12-31T19:36:56.086Z,88.50
2018-12-31T19:42:08.108Z,88.60
2018-12-31T19:47:19.421Z,88.40
2018-12-31T19:52:31.085Z,88.80
2018-12-31T19:57:42.951Z,88.80
2018-12-31T20:02:54.967Z,88.80
2018-12-31T20:08:07.229Z,88.80
2018-12-31T20:13:19.617Z,89.00
2018-12-31T20:18:31.120Z,88.80
2018-12-31T20:23:42.580Z,88.80
2018-12-31T20:28:54.483Z,88.80
2018-12-31T20:34:06.789Z,88.90
2018-12-31T20:39:18.943Z,88.70
2018-12-31T20:44:18.856Z,88.60
2018-12-31T20:49:39.388Z,88.60
2018-12-31T20:54:50.643Z,88.40
2018-12-31T20:59:50.502Z,88.80
2018-12-31T21:04:50.374Z,88.60
2018-12-31T21:10:02.046Z,88.20
2018-12-31T21:15:14.086Z,88.60
2018-12-31T21:20:25.521Z,88.30
2018-12-31T21:25:37.932Z,88.30
2018-12-31T21:30:52.478Z,88.90
2018-12-31T21:35:52.204Z,89.20
2018-12-31T21:41:11.199Z,88.80
2018-12-31T21:46:22.925Z,89.10
2018-12-31T21:51:22.684Z,89.20
2018-12-31T21:56:22.744Z,89.20
2018-12-31T22:01:35.296Z,89.20
2018-12-31T22:06:47.299Z,88.50
2018-12-31T22:11:59.147Z,88.30
2018-12-31T22:17:10.388Z,88.60
2018-12-31T22:22:22.464Z,88.90
2018-12-31T22:27:34.203Z,88.30
2018-12-31T22:32:46.003Z,88.00
2018-12-31T22:37:58.099Z,88.10
2018-12-31T22:43:09.431Z,88.50
2018-12-31T22:48:28.723Z,88.00
2018-12-31T22:53:40.167Z,87.60
2018-12-31T22:58:52.336Z,87.80
2018-12-31T23:04:04.323Z,87.60
2018-12-31T23:09:15.810Z,87.80
2018-12-31T23:14:27.635Z,87.20
2018-12-31T23:19:41.959Z,87.70
2018-12-31T23:24:53.049Z,87.40
2018-12-31T23:30:04.679Z,86.90
2018-12-31T23:35:17.645Z,86.80
2018-12-31T23:40:29.376Z,87.00
2018-12-31T23:45:41.420Z,87.00
2018-12-31T23:50:53.094Z,87.20
2018-12-31T23:56:05.168Z,87.10
